Time;durP1;ratioP1;P1;durP2;ratioP2;P2;SDS_P1;SDS_P2;PMS_P1;PMS_P2;Temp;Humidity;BMP_temperature;BMP_pressure;BME280_temperature;BME280_humidity;BME280_pressure;Samples;Min_cycle;Max_cycle;Signal;HPM_P1;HPM_P2
2021/12/11 00:01:53;;;;;;;12.43;9.82;;;7.00;74.70;;;;;;5047562;28;20025;-86
2021/12/11 00:04:25;;;;;;;10.27;8.32;;;6.80;75.20;;;;;;5079096;28;20040;-85
2021/12/11 00:06:53;;;;;;;9.57;6.93;;;6.90;75.10;;;;;;5052046;28;20024;-85
2021/12/11 00:09:22;;;;;;;9.80;6.75;;;6.90;75.20;;;;;;5049749;28;20024;-85
2021/12/11 00:11:55;;;;;;;12.43;9.10;;;7.00;74.90;;;;;;5053472;28;20028;-85
2021/12/11 00:14:23;;;;;;;11.93;7.30;;;7.00;74.20;;;;;;5047568;28;20083;-85
2021/12/11 00:16:50;;;;;;;9.65;7.13;;;6.90;74.70;;;;;;5050038;28;20060;-86
2021/12/11 00:19:22;;;;;;;10.10;7.03;;;6.90;74.80;;;;;;5052324;28;20499;-86
2021/12/11 00:21:49;;;;;;;9.43;6.93;;;6.90;74.80;;;;;;5053031;28;20028;-86
2021/12/11 00:24:25;;;;;;;9.50;6.80;;;7.10;74.40;;;;;;5044023;28;20036;-84
2021/12/11 00:27:06;;;;;;;8.30;6.10;;;7.20;74.20;;;;;;5049766;28;20091;-84
2021/12/11 00:29:34;;;;;;;8.43;6.97;;;7.30;73.80;;;;;;5051563;28;20090;-84
2021/12/11 00:32:23;;;;;;;8.27;6.53;;;7.30;73.70;;;;;;5045266;28;20057;-85
2021/12/11 00:34:51;;;;;;;12.25;8.63;;;7.40;73.40;;;;;;5042884;28;20556;-84
2021/12/11 00:37:21;;;;;;;10.07;7.80;;;7.30;72.90;;;;;;5045062;28;20103;-85
2021/12/11 00:39:49;;;;;;;11.20;8.88;;;7.20;73.50;;;;;;5052849;28;20079;-85
2021/12/11 00:42:16;;;;;;;9.55;7.78;;;7.20;73.60;;;;;;5051369;28;20033;-86
2021/12/11 00:45:12;;;;;;;9.57;8.02;;;7.20;73.70;;;;;;5049171;28;20037;-85
2021/12/11 00:47:50;;;;;;;11.07;8.02;;;7.30;73.20;;;;;;5049494;28;20035;-85
2021/12/11 00:50:17;;;;;;;8.95;7.07;;;7.40;73.40;;;;;;5051511;28;20027;-85
2021/12/11 00:52:51;;;;;;;10.43;7.72;;;7.40;73.40;;;;;;5050182;28;20036;-86
2021/12/11 00:55:28;;;;;;;11.60;7.97;;;7.40;73.40;;;;;;5046084;28;20465;-85
2021/12/11 00:58:14;;;;;;;16.50;11.07;;;7.40;73.30;;;;;;5052700;28;20044;-85
2021/12/11 01:01:00;;;;;;;12.18;10.07;;;7.40;72.90;;;;;;5048714;28;20432;-86
2021/12/11 01:03:39;;;;;;;10.93;8.35;;;7.30;72.90;;;;;;5048754;28;20033;-86
2021/12/11 01:06:31;;;;;;;13.18;9.48;;;7.30;74.10;;;;;;5049029;28;20063;-86
2021/12/11 01:09:05;;;;;;;14.20;10.43;;;7.20;73.50;;;;;;5038754;28;20095;-88
2021/12/11 01:11:37;;;;;;;11.05;8.60;;;7.20;73.80;;;;;;5052218;28;20115;-87
2021/12/11 01:14:19;;;;;;;10.65;7.55;;;7.10;74.20;;;;;;5050583;28;20037;-87
2021/12/11 01:16:57;;;;;;;12.98;10.00;;;7.00;74.50;;;;;;5050731;28;20017;-87
2021/12/11 01:19:25;;;;;;;15.48;10.73;;;7.00;74.40;;;;;;5045335;28;20032;-86
2021/12/11 01:21:59;;;;;;;18.83;11.88;;;6.70;75.30;;;;;;5042824;28;20492;-88
2021/12/11 01:24:45;;;;;;;16.58;12.15;;;6.70;75.70;;;;;;5051721;28;20027;-88
2021/12/11 01:27:24;;;;;;;11.68;8.48;;;6.70;76.10;;;;;;5045786;28;20029;-88
2021/12/11 01:29:56;;;;;;;18.20;10.75;;;6.70;75.90;;;;;;5051998;28;20148;-87
2021/12/11 01:32:24;;;;;;;19.13;12.30;;;6.70;75.70;;;;;;5044757;28;20087;-86
2021/12/11 01:34:50;;;;;;;14.07;10.43;;;6.70;75.60;;;;;;5054870;28;20064;-86
2021/12/11 01:37:16;;;;;;;11.80;8.95;;;6.70;75.90;;;;;;5051707;28;20025;-86
2021/12/11 01:39:42;;;;;;;12.05;8.82;;;6.60;76.00;;;;;;5050287;28;20048;-85
2021/12/11 01:42:13;;;;;;;13.70;10.00;;;6.60;76.50;;;;;;5050518;28;20040;-84
2021/12/11 01:44:42;;;;;;;11.35;8.73;;;6.70;75.80;;;;;;5051640;28;20033;-84
2021/12/11 01:47:14;;;;;;;16.60;11.95;;;6.60;76.50;;;;;;5047528;28;20373;-84
2021/12/11 01:49:44;;;;;;;11.10;8.10;;;6.60;76.20;;;;;;5053414;28;20508;-84
2021/12/11 01:52:15;;;;;;;10.23;7.93;;;6.60;76.40;;;;;;5051575;28;20529;-84
2021/12/11 01:54:44;;;;;;;11.07;8.05;;;6.70;76.20;;;;;;5051385;28;20156;-84
2021/12/11 01:57:25;;;;;;;10.68;8.00;;;6.60;76.40;;;;;;5051026;28;20104;-85
2021/12/11 01:59:54;;;;;;;;;;;6.70;76.00;;;;;;5056113;28;20035;-84
2021/12/11 02:02:26;;;;;;;11.65;7.22;;;6.80;75.70;;;;;;5055482;28;19920;-84
2021/12/11 02:04:54;;;;;;;9.35;6.72;;;6.80;75.40;;;;;;5045969;28;20446;-85
2021/12/11 02:07:35;;;;;;;9.23;7.22;;;6.90;75.20;;;;;;5049090;28;20024;-87
2021/12/11 02:10:09;;;;;;;9.63;7.38;;;6.90;75.10;;;;;;5061225;28;20012;-87
2021/12/11 02:12:39;;;;;;;10.23;6.50;;;7.00;74.90;;;;;;5054763;28;20055;-85
2021/12/11 02:15:09;;;;;;;10.45;7.22;;;7.00;74.60;;;;;;5057929;28;20499;-86
2021/12/11 02:17:44;;;;;;;9.73;6.68;;;7.00;74.30;;;;;;5038116;28;20485;-86
2021/12/11 02:20:14;;;;;;;8.10;6.13;;;7.00;74.20;;;;;;5051170;28;20025;-86
2021/12/11 02:22:46;;;;;;;8.35;5.97;;;7.10;74.10;;;;;;5055810;28;20033;-87
2021/12/11 02:25:20;;;;;;;11.95;7.78;;;7.20;73.80;;;;;;5055793;28;20503;-87
2021/12/11 02:27:57;;;;;;;7.75;5.90;;;7.20;72.50;;;;;;5055523;28;20082;-87
2021/12/11 02:30:33;;;;;;;7.43;5.65;;;7.20;73.20;;;;;;5053596;28;20024;-86
2021/12/11 02:33:03;;;;;;;6.82;5.38;;;7.10;72.10;;;;;;5054983;28;20056;-85
2021/12/11 02:35:48;;;;;;;8.80;6.65;;;7.10;72.50;;;;;;5047726;28;20047;-82
2021/12/11 02:38:20;;;;;;;8.07;5.90;;;7.10;72.10;;;;;;5040408;28;20041;-88
2021/12/11 02:40:56;;;;;;;8.40;6.28;;;7.10;72.40;;;;;;5036324;28;20341;-88
2021/12/11 02:43:21;;;;;;;7.85;5.82;;;7.00;72.30;;;;;;5056388;28;20040;-87
2021/12/11 02:46:02;;;;;;;7.75;5.60;;;7.10;72.50;;;;;;5053510;28;20037;-88
2021/12/11 02:48:37;;;;;;;8.60;5.85;;;7.10;72.40;;;;;;5053536;28;20037;-87
2021/12/11 02:51:13;;;;;;;5.93;5.00;;;7.10;71.80;;;;;;5054185;28;20041;-85
2021/12/11 02:53:45;;;;;;;6.13;4.95;;;7.20;72.10;;;;;;5052058;28;20017;-85
2021/12/11 02:56:24;;;;;;;7.43;4.70;;;7.20;71.90;;;;;;5054035;28;20075;-86
2021/12/11 02:58:56;;;;;;;8.30;5.75;;;7.30;71.90;;;;;;5053110;28;20033;-88
2021/12/11 03:01:28;;;;;;;8.70;5.72;;;7.30;72.00;;;;;;5052043;28;20192;-87
2021/12/11 03:04:13;;;;;;;6.85;5.18;;;7.40;72.10;;;;;;5054922;28;20560;-87
2021/12/11 03:06:43;;;;;;;6.60;5.47;;;7.40;72.00;;;;;;5050951;28;20021;-87
2021/12/11 03:09:13;;;;;;;7.07;5.40;;;7.40;72.00;;;;;;5054977;28;20414;-88
2021/12/11 03:11:39;;;;;;;7.20;5.00;;;7.40;72.00;;;;;;5044616;28;20034;-88
2021/12/11 03:14:12;;;;;;;5.65;4.90;;;7.50;71.90;;;;;;5053412;28;20446;-87
2021/12/11 03:16:38;;;;;;;6.43;4.80;;;7.50;71.80;;;;;;5054316;28;20386;-87
2021/12/11 03:19:07;;;;;;;6.05;4.22;;;7.50;71.70;;;;;;5054218;28;20112;-84
2021/12/11 03:21:34;;;;;;;6.03;4.53;;;7.40;71.50;;;;;;5052927;28;20033;-85
2021/12/11 03:24:00;;;;;;;5.65;4.60;;;7.40;71.60;;;;;;5056047;28;20033;-86
2021/12/11 03:26:26;;;;;;;6.25;4.60;;;7.40;71.70;;;;;;5053358;28;20024;-87
2021/12/11 03:28:53;;;;;;;5.97;3.92;;;7.40;71.50;;;;;;5058491;28;20124;-86
2021/12/11 03:31:19;;;;;;;5.28;4.50;;;7.40;71.20;;;;;;5052712;28;20133;-87
2021/12/11 03:33:50;;;;;;;7.80;4.63;;;7.40;71.10;;;;;;5051375;28;20045;-85
2021/12/11 03:36:19;;;;;;;4.82;3.95;;;7.50;71.20;;;;;;5050698;28;20032;-83
2021/12/11 03:38:55;;;;;;;5.63;4.32;;;7.50;71.20;;;;;;5052459;28;20028;-84
2021/12/11 03:41:23;;;;;;;6.55;3.83;;;7.50;71.20;;;;;;5045827;28;20055;-85
2021/12/11 03:43:49;;;;;;;7.32;5.32;;;7.50;71.10;;;;;;5052200;28;20057;-86
2021/12/11 03:46:16;;;;;;;5.07;4.10;;;7.50;70.00;;;;;;5054422;28;20381;-85
2021/12/11 03:48:59;;;;;;;3.90;3.30;;;7.40;70.70;;;;;;5043811;28;20029;-86
2021/12/11 03:51:30;;;;;;;4.93;3.97;;;7.40;70.50;;;;;;5054087;28;20103;-87
2021/12/11 03:53:57;;;;;;;5.95;3.85;;;7.40;70.80;;;;;;5050919;28;20059;-89
2021/12/11 03:56:23;;;;;;;4.20;3.80;;;7.30;70.50;;;;;;5048011;28;20029;-89
2021/12/11 03:58:50;;;;;;;6.93;4.93;;;7.30;70.40;;;;;;5053897;28;20036;-88
2021/12/11 04:01:26;;;;;;;4.78;3.95;;;7.30;70.50;;;;;;5053741;28;20048;-86
2021/12/11 04:03:56;;;;;;;7.03;4.90;;;7.30;70.70;;;;;;5053385;28;20032;-85
2021/12/11 04:06:23;;;;;;;6.47;4.70;;;7.20;70.20;;;;;;5046947;28;20032;-85
2021/12/11 04:08:49;;;;;;;6.95;4.03;;;7.20;70.50;;;;;;5054428;28;20037;-85
2021/12/11 04:11:20;;;;;;;6.65;4.57;;;7.20;70.70;;;;;;5053187;28;20074;-84
2021/12/11 04:13:49;;;;;;;4.78;4.03;;;7.20;70.60;;;;;;5053053;28;20020;-85
2021/12/11 04:16:16;;;;;;;4.77;4.07;;;7.20;70.70;;;;;;5052913;28;20028;-86
2021/12/11 04:18:42;;;;;;;5.15;4.13;;;7.20;70.90;;;;;;5052842;28;20481;-86
2021/12/11 04:21:08;;;;;;;4.50;3.85;;;7.00;70.80;;;;;;5053054;28;20025;-87
2021/12/11 04:23:34;;;;;;;4.82;3.60;;;7.10;70.80;;;;;;5054295;28;20044;-84
2021/12/11 04:26:02;;;;;;;5.18;4.07;;;7.10;70.80;;;;;;5052361;28;20420;-86
2021/12/11 04:28:36;;;;;;;6.93;4.40;;;7.10;70.70;;;;;;5046610;28;20037;-85
2021/12/11 04:31:09;;;;;;;6.32;4.28;;;7.10;70.50;;;;;;5051211;28;20025;-86
2021/12/11 04:33:38;;;;;;;;;;;7.20;70.80;;;;;;5053579;28;20033;-87
2021/12/11 04:36:09;;;;;;;5.93;3.97;;;7.20;70.60;;;;;;5053297;28;19909;-87
2021/12/11 04:38:35;;;;;;;4.38;3.72;;;7.20;70.50;;;;;;5054307;28;20037;-87
2021/12/11 04:41:02;;;;;;;5.80;3.90;;;7.20;70.50;;;;;;5052695;28;20565;-80
2021/12/11 04:43:28;;;;;;;4.35;3.72;;;7.20;70.50;;;;;;5046000;28;20370;-80
2021/12/11 04:46:00;;;;;;;4.93;3.97;;;7.20;70.50;;;;;;5040685;28;20037;-80
2021/12/11 04:48:38;;;;;;;5.70;3.97;;;7.30;70.60;;;;;;5050808;28;20049;-81
2021/12/11 04:51:20;;;;;;;4.32;3.55;;;7.30;70.60;;;;;;5043423;28;20087;-81
2021/12/11 05:14:45;;;;;;;5.55;3.75;;;7.40;70.20;;;;;;5048873;28;20568;-80
2021/12/11 05:17:11;;;;;;;4.13;3.47;;;7.30;70.00;;;;;;5051080;28;20031;-80
2021/12/11 05:19:37;;;;;;;4.68;3.55;;;7.30;70.20;;;;;;5053319;28;20033;-80
2021/12/11 05:22:05;;;;;;;4.63;3.38;;;7.40;70.40;;;;;;5061644;28;20036;-80
2021/12/11 05:24:32;;;;;;;5.40;3.63;;;7.40;70.00;;;;;;5056005;28;20032;-80
2021/12/11 05:26:58;;;;;;;3.92;3.53;;;7.40;69.80;;;;;;5065324;28;20021;-79
2021/12/11 05:29:23;;;;;;;5.30;3.67;;;7.30;69.60;;;;;;5056853;28;20432;-80
2021/12/11 05:31:50;;;;;;;5.50;3.80;;;7.30;69.90;;;;;;5056726;28;20028;-81
2021/12/11 05:34:16;;;;;;;3.60;3.17;;;7.30;70.60;;;;;;5054066;28;20033;-81
2021/12/11 05:36:42;;;;;;;5.00;3.50;;;7.30;70.60;;;;;;5056089;28;20052;-81
2021/12/11 05:39:12;;;;;;;6.15;4.05;;;7.30;70.50;;;;;;5057344;28;20068;-81
2021/12/11 05:41:39;;;;;;;6.05;4.25;;;7.30;69.70;;;;;;5056343;28;20036;-81
2021/12/11 05:44:06;;;;;;;5.80;3.80;;;7.30;69.80;;;;;;5056734;28;20448;-81
2021/12/11 05:46:32;;;;;;;3.83;2.95;;;7.30;70.00;;;;;;5057440;28;20024;-81
2021/12/11 05:48:57;;;;;;;4.22;3.70;;;7.40;70.10;;;;;;5066388;28;20048;-81
2021/12/11 05:51:25;;;;;;;5.50;3.55;;;7.40;69.80;;;;;;5054157;28;20032;-81
2021/12/11 05:53:56;;;;;;;5.85;3.80;;;7.40;69.90;;;;;;5057956;28;20054;-81
2021/12/11 05:56:23;;;;;;;4.72;3.40;;;7.50;70.10;;;;;;5056602;28;20028;-82
2021/12/11 06:01:43;;;;;;;6.30;4.45;;;7.50;69.90;;;;;;5050980;28;20032;-80
2021/12/11 06:04:12;;;;;;;5.22;3.88;;;7.40;68.80;;;;;;5049369;28;20029;-79
2021/12/11 06:06:38;;;;;;;7.25;4.05;;;7.40;69.70;;;;;;5054647;28;20489;-80
2021/12/11 06:09:07;;;;;;;6.43;4.50;;;7.40;70.00;;;;;;5049934;28;20037;-82
2021/12/11 06:11:33;;;;;;;5.13;3.88;;;7.40;70.00;;;;;;5050366;28;20029;-81
2021/12/11 06:13:59;;;;;;;6.18;3.80;;;7.40;69.90;;;;;;5051918;28;20033;-80
2021/12/11 06:16:27;;;;;;;6.05;4.43;;;7.40;69.90;;;;;;5061263;28;20443;-81
2021/12/11 06:18:53;;;;;;;6.95;4.22;;;7.40;69.80;;;;;;5058588;28;20071;-81
2021/12/11 06:21:20;;;;;;;5.40;3.88;;;7.40;69.80;;;;;;5049071;28;20391;-76
2021/12/11 06:23:46;;;;;;;5.57;3.85;;;7.40;70.60;;;;;;5053969;28;20035;-76
2021/12/11 06:26:12;;;;;;;4.90;3.65;;;7.40;70.40;;;;;;5051172;28;20036;-77
2021/12/11 06:28:38;;;;;;;5.93;3.85;;;7.40;70.30;;;;;;5045051;28;20037;-77
2021/12/11 06:31:04;;;;;;;4.32;3.80;;;7.40;70.90;;;;;;5050143;28;20017;-77
2021/12/11 06:33:32;;;;;;;5.50;3.80;;;7.40;70.30;;;;;;5046842;28;20369;-74
2021/12/11 06:36:08;;;;;;;4.68;3.63;;;7.40;70.50;;;;;;5054757;28;20044;-78
2021/12/11 06:38:35;;;;;;;4.45;3.72;;;7.40;70.50;;;;;;5054648;28;20029;-78
2021/12/11 06:41:03;;;;;;;6.28;4.05;;;7.40;70.50;;;;;;5050326;28;20095;-77
2021/12/11 06:43:29;;;;;;;6.45;4.03;;;7.40;70.50;;;;;;5051023;28;20091;-78
2021/12/11 06:45:55;;;;;;;4.80;3.50;;;7.40;70.70;;;;;;5050212;28;20025;-77
2021/12/11 06:48:21;;;;;;;5.82;3.85;;;7.40;70.80;;;;;;5050057;28;20108;-87
2021/12/11 06:50:49;;;;;;;5.72;4.07;;;7.40;71.50;;;;;;5053799;28;20083;-84
2021/12/11 06:53:28;;;;;;;5.72;4.30;;;7.40;71.00;;;;;;5053110;28;20021;-77
2021/12/11 06:55:54;;;;;;;5.10;4.05;;;7.40;71.10;;;;;;5052146;28;20056;-77
2021/12/11 06:58:20;;;;;;;6.03;4.10;;;7.40;71.00;;;;;;5053281;28;20451;-77
2021/12/11 07:00:46;;;;;;;5.88;4.30;;;7.40;70.90;;;;;;5052162;28;20029;-77
2021/12/11 07:03:12;;;;;;;5.22;3.88;;;7.40;71.00;;;;;;5054233;28;20025;-77
2021/12/11 07:05:37;;;;;;;5.57;4.30;;;7.30;71.30;;;;;;5060724;28;20469;-84
2021/12/11 07:08:06;;;;;;;6.45;4.35;;;7.30;71.60;;;;;;5067556;28;20062;-80
2021/12/11 07:10:32;;;;;;;6.10;4.22;;;7.30;71.30;;;;;;5052733;28;20037;-81
2021/12/11 07:12:58;;;;;;;8.38;5.22;;;7.30;71.20;;;;;;5054686;28;20027;-85
2021/12/11 07:15:24;;;;;;;8.45;5.57;;;7.30;71.00;;;;;;5053952;28;20025;-84
2021/12/11 07:17:50;;;;;;;9.40;6.18;;;7.30;70.90;;;;;;5050707;28;20155;-89
2021/12/11 07:20:16;;;;;;;11.20;7.57;;;7.20;70.90;;;;;;5052858;28;20451;-86
2021/12/11 07:22:43;;;;;;;10.63;6.47;;;7.20;71.00;;;;;;5054674;28;20043;-85
2021/12/11 07:25:30;;;;;;;9.88;6.60;;;7.30;71.00;;;;;;5051389;28;20136;-85
2021/12/11 07:28:01;;;;;;;10.82;6.72;;;7.30;70.80;;;;;;5052150;28;20033;-86
2021/12/11 07:30:27;;;;;;;9.52;6.80;;;7.20;70.80;;;;;;5053152;28;20029;-87
2021/12/11 07:32:58;;;;;;;9.23;6.45;;;7.20;71.00;;;;;;5058156;28;20025;-85
2021/12/11 07:35:25;;;;;;;9.05;6.82;;;7.20;71.60;;;;;;5058017;28;20134;-84
2021/12/11 07:37:51;;;;;;;7.40;5.90;;;7.20;71.70;;;;;;5053349;28;20037;-87
2021/12/11 07:40:21;;;;;;;9.98;6.13;;;7.20;71.80;;;;;;5060920;28;20025;-87
2021/12/11 07:42:47;;;;;;;11.32;6.57;;;7.20;71.80;;;;;;5058490;28;20096;-86
2021/12/11 07:45:14;;;;;;;10.73;6.43;;;7.30;71.70;;;;;;5053200;28;20064;-84
2021/12/11 07:47:40;;;;;;;9.13;5.80;;;7.30;71.90;;;;;;5047392;28;20116;-84
2021/12/11 07:50:06;;;;;;;10.05;6.70;;;7.30;77.80;;;;;;5053173;28;20112;-89
2021/12/11 07:52:32;;;;;;;9.07;5.60;;;7.40;72.90;;;;;;5053224;28;20017;-87
2021/12/11 07:54:57;;;;;;;7.85;5.95;;;7.40;72.10;;;;;;5049636;28;20458;-88
2021/12/11 07:57:23;;;;;;;8.80;6.80;;;7.40;71.80;;;;;;5051869;28;21642;-87
2021/12/11 07:59:49;;;;;;;7.03;5.45;;;7.40;72.00;;;;;;5049008;28;20039;-86
2021/12/11 08:02:15;;;;;;;10.77;5.57;;;7.50;72.10;;;;;;5049910;28;20021;-84
2021/12/11 08:04:40;;;;;;;8.95;5.25;;;7.50;72.10;;;;;;5050108;28;20071;-85
2021/12/11 08:07:06;;;;;;;5.57;4.72;;;7.50;72.00;;;;;;5055411;28;20333;-84
2021/12/11 08:09:34;;;;;;;7.13;5.30;;;7.60;71.70;;;;;;5053714;28;20029;-83
2021/12/11 08:12:00;;;;;;;8.55;5.10;;;7.60;71.40;;;;;;5054886;28;20060;-83
2021/12/11 08:14:26;;;;;;;7.63;5.63;;;7.60;70.90;;;;;;5062804;28;20378;-82
2021/12/11 08:16:57;;;;;;;9.00;5.70;;;7.70;71.10;;;;;;5050468;28;20078;-83
2021/12/11 08:19:26;;;;;;;9.23;6.25;;;7.70;71.10;;;;;;5060906;28;20059;-84
2021/12/11 08:21:57;;;;;;;11.18;6.07;;;7.70;70.80;;;;;;5049090;28;20047;-84
2021/12/11 08:24:25;;;;;;;8.57;5.30;;;7.70;70.10;;;;;;5052268;28;20028;-86
2021/12/11 08:26:55;;;;;;;8.10;5.38;;;7.70;68.20;;;;;;5052214;28;20472;-87
2021/12/11 08:29:22;;;;;;;8.48;5.68;;;7.70;69.50;;;;;;5045744;28;20108;-87
2021/12/11 08:31:52;;;;;;;7.35;5.28;;;7.90;70.10;;;;;;5051599;28;20116;-83
2021/12/11 08:34:18;;;;;;;9.93;6.07;;;8.00;70.30;;;;;;5048389;28;20044;-83
2021/12/11 08:36:44;;;;;;;7.13;5.38;;;8.10;70.00;;;;;;5052975;28;20112;-83
2021/12/11 08:39:12;;;;;;;9.05;5.50;;;8.20;69.80;;;;;;5055038;28;20029;-83
2021/12/11 08:41:39;;;;;;;6.78;4.97;;;8.30;66.70;;;;;;5043059;28;20419;-83
2021/12/11 08:44:11;;;;;;;6.22;5.07;;;8.20;66.90;;;;;;5052985;28;20484;-81
2021/12/11 08:46:39;;;;;;;6.05;4.80;;;8.20;68.00;;;;;;5051708;28;20064;-82
2021/12/11 08:49:08;;;;;;;7.50;4.70;;;8.30;65.90;;;;;;5050307;28;20040;-81
2021/12/11 08:52:31;;;;;;;6.20;3.77;;;8.30;65.90;;;;;;5055757;28;20069;-82
2021/12/11 08:54:59;;;;;;;5.78;4.40;;;8.30;63.90;;;;;;4988621;28;20022;-83
2021/12/11 08:57:29;;;;;;;6.72;4.03;;;8.30;65.40;;;;;;4987670;28;20035;-82
2021/12/11 09:00:09;;;;;;;6.20;4.47;;;8.30;65.70;;;;;;5019895;28;20040;-82
2021/12/11 09:02:40;;;;;;;4.88;4.03;;;8.40;66.30;;;;;;5048188;28;20068;-82
2021/12/11 09:05:12;;;;;;;8.88;5.45;;;8.50;67.00;;;;;;5057788;28;20025;-82
2021/12/11 09:07:49;;;;;;;7.10;4.30;;;8.40;64.10;;;;;;5059255;28;20037;-82
2021/12/11 09:10:39;;;;;;;6.15;4.57;;;8.40;66.00;;;;;;5048731;28;20025;-82
2021/12/11 09:13:07;;;;;;;5.07;4.22;;;8.50;66.60;;;;;;5062692;28;20025;-82
2021/12/11 09:15:40;;;;;;;7.32;4.72;;;8.60;67.00;;;;;;5066952;28;20026;-82
2021/12/11 09:18:14;;;;;;;5.65;4.30;;;8.70;67.50;;;;;;5057880;28;20036;-82
2021/12/11 09:20:57;;;;;;;6.32;4.97;;;8.70;66.30;;;;;;5049823;28;20103;-82
2021/12/11 09:23:35;;;;;;;7.00;4.10;;;8.70;65.70;;;;;;5059587;28;20038;-82
2021/12/11 09:26:04;;;;;;;7.40;4.43;;;8.70;66.50;;;;;;5057460;28;20358;-82
2021/12/11 09:28:53;;;;;;;6.63;4.63;;;8.80;66.40;;;;;;5059717;28;20032;-82
2021/12/11 09:31:34;;;;;;;6.95;3.75;;;8.80;65.70;;;;;;5045749;28;20047;-82
2021/12/11 09:34:18;;;;;;;5.80;3.75;;;8.80;65.20;;;;;;5063282;28;20041;-81
2021/12/11 09:36:48;;;;;;;9.35;4.40;;;8.90;66.10;;;;;;5063184;28;20052;-81
2021/12/11 09:39:37;;;;;;;10.35;4.80;;;9.00;64.70;;;;;;5051325;28;20025;-82
2021/12/11 09:42:02;;;;;;;6.43;3.55;;;9.00;62.70;;;;;;5052091;28;20480;-82
2021/12/11 09:44:52;;;;;;;5.45;3.65;;;9.10;64.70;;;;;;5055695;28;20025;-82
2021/12/11 09:47:41;;;;;;;6.32;4.63;;;9.20;65.40;;;;;;5047932;28;20048;-82
2021/12/11 09:50:21;;;;;;;9.05;4.88;;;9.20;61.50;;;;;;5063427;28;20017;-83
2021/12/11 09:52:49;;;;;;;9.30;5.18;;;9.00;61.70;;;;;;5059364;28;20086;-82
2021/12/11 09:55:23;;;;;;;5.40;3.92;;;9.00;62.40;;;;;;5060950;28;20020;-82
2021/12/11 09:57:56;;;;;;;5.88;4.45;;;9.20;63.70;;;;;;5045667;28;20572;-82
2021/12/11 10:00:29;;;;;;;6.93;4.82;;;9.30;63.10;;;;;;5059231;28;20029;-82
2021/12/11 10:02:55;;;;;;;6.75;4.03;;;9.40;63.40;;;;;;5045651;28;20079;-82
2021/12/11 10:05:31;;;;;;;6.15;4.40;;;9.40;63.00;;;;;;5055566;28;20384;-83
2021/12/11 10:10:47;;;;;;;7.18;3.60;;;9.70;63.80;;;;;;5051192;28;20064;-82
2021/12/11 10:13:13;;;;;;;6.25;4.50;;;9.90;63.90;;;;;;5068780;28;20373;-83
2021/12/11 10:15:41;;;;;;;6.28;4.60;;;10.00;63.80;;;;;;5062934;28;20028;-82
2021/12/11 10:18:11;;;;;;;7.10;4.68;;;10.10;63.90;;;;;;5060686;28;20029;-83
2021/12/11 10:20:54;;;;;;;5.95;4.65;;;10.30;62.50;;;;;;5063939;28;20021;-83
2021/12/11 10:23:24;;;;;;;8.63;4.25;;;10.40;63.50;;;;;;5055799;28;20665;-83
2021/12/11 10:25:50;;;;;;;5.93;4.70;;;10.50;62.00;;;;;;5057053;28;20037;-83
2021/12/11 10:28:19;;;;;;;7.05;5.15;;;10.60;62.60;;;;;;5056481;28;20059;-81
2021/12/11 10:30:50;;;;;;;9.00;5.10;;;10.50;59.40;;;;;;5055951;28;20025;-83
2021/12/11 10:33:19;;;;;;;5.45;4.32;;;10.60;59.60;;;;;;5048498;28;20120;-83
2021/12/11 10:35:50;;;;;;;5.75;4.38;;;10.60;61.40;;;;;;5044463;28;20402;-80
2021/12/11 10:38:16;;;;;;;10.57;5.50;;;10.60;61.20;;;;;;5053940;28;20033;-81
2021/12/11 10:40:51;;;;;;;6.40;4.55;;;10.80;60.40;;;;;;5054496;28;20096;-83
2021/12/11 10:43:26;;;;;;;6.85;5.03;;;10.80;60.10;;;;;;5052478;28;20392;-83
2021/12/11 10:45:52;;;;;;;8.68;6.47;;;10.80;60.70;;;;;;5066709;28;20357;-83
2021/12/11 10:48:23;;;;;;;6.72;5.00;;;10.70;59.20;;;;;;5069251;28;20040;-85
2021/12/11 10:50:53;;;;;;;15.73;5.57;;;10.70;60.50;;;;;;5073037;28;20512;-83
2021/12/11 10:53:22;;;;;;;40.00;6.13;;;10.70;62.30;;;;;;5069030;28;20057;-82
2021/12/11 10:55:49;;;;;;;24.20;8.07;;;10.80;61.90;;;;;;5058254;28;20028;-82
2021/12/11 10:58:20;;;;;;;7.72;5.78;;;11.00;60.70;;;;;;5056305;28;20419;-88
2021/12/11 11:00:52;;;;;;;8.50;5.85;;;11.00;59.50;;;;;;5071090;28;20077;-81
2021/12/11 11:03:18;;;;;;;6.88;5.13;;;11.10;60.10;;;;;;5051591;28;20033;-81
2021/12/11 11:05:45;;;;;;;6.95;4.97;;;11.20;60.10;;;;;;5054406;28;20025;-81
2021/12/11 11:08:11;;;;;;;6.32;4.57;;;11.30;60.00;;;;;;5052362;28;20033;-80
2021/12/11 11:10:44;;;;;;;6.38;4.57;;;11.30;59.80;;;;;;5050530;28;20040;-83
2021/12/11 11:13:13;;;;;;;7.03;5.13;;;11.50;59.80;;;;;;5052793;28;20108;-83
2021/12/11 11:15:40;;;;;;;7.40;5.05;;;11.60;60.00;;;;;;5065032;28;20040;-82
2021/12/11 11:18:08;;;;;;;6.47;4.75;;;11.70;58.20;;;;;;5067437;28;20039;-81
2021/12/11 11:20:42;;;;;;;7.68;4.70;;;11.80;59.30;;;;;;5063901;28;20037;-81
2021/12/11 11:23:08;;;;;;;4.78;3.88;;;11.90;58.40;;;;;;5066141;28;20032;-84
2021/12/11 11:25:41;;;;;;;4.75;3.47;;;12.00;56.10;;;;;;5060837;28;20150;-90
2021/12/11 11:28:10;;;;;;;4.88;3.67;;;12.10;57.50;;;;;;5055582;28;20033;-83
2021/12/11 11:30:44;;;;;;;8.07;4.47;;;12.20;57.60;;;;;;5053346;28;20087;-83
2021/12/11 11:33:10;;;;;;;6.43;4.00;;;12.50;56.30;;;;;;5050623;28;20032;-80
2021/12/11 11:35:42;;;;;;;8.43;4.18;;;12.80;58.00;;;;;;5058690;28;20033;-80
2021/12/11 11:38:13;;;;;;;6.32;3.88;;;13.30;56.60;;;;;;5053322;28;20445;-80
2021/12/11 11:40:43;;;;;;;5.38;4.07;;;14.00;55.10;;;;;;5057178;28;20036;-80
2021/12/11 11:43:10;;;;;;;3.55;3.05;;;14.60;53.20;;;;;;5057840;28;20075;-80
2021/12/11 11:45:41;;;;;;;4.60;3.70;;;15.00;51.40;;;;;;5054120;28;20028;-79
2021/12/11 11:48:08;;;;;;;7.10;3.92;;;15.20;50.20;;;;;;5052727;28;20456;-80
2021/12/11 11:50:39;;;;;;;4.03;3.53;;;15.40;49.50;;;;;;5050365;28;20083;-80
2021/12/11 11:53:06;;;;;;;4.25;3.33;;;15.40;48.80;;;;;;5052600;28;20032;-80
2021/12/11 11:55:37;;;;;;;4.75;3.72;;;15.30;46.30;;;;;;5045802;28;20083;-80
2021/12/11 11:58:04;;;;;;;4.63;3.47;;;15.20;47.40;;;;;;5049475;28;20029;-80
2021/12/11 12:00:41;;;;;;;6.18;4.28;;;15.00;47.60;;;;;;5049329;28;20029;-80
2021/12/11 12:03:08;;;;;;;4.32;3.25;;;14.60;45.20;;;;;;5055905;28;20025;-79
2021/12/11 12:05:36;;;;;;;4.03;3.35;;;14.30;48.20;;;;;;5050359;28;20044;-80
2021/12/11 12:08:05;;;;;;;3.65;3.08;;;14.40;48.70;;;;;;5065768;28;20033;-79
2021/12/11 12:10:31;;;;;;;4.47;3.85;;;14.50;48.10;;;;;;5057743;28;20033;-79
2021/12/11 12:12:57;;;;;;;6.20;4.03;;;14.60;48.50;;;;;;5056619;28;20024;-80
2021/12/11 12:15:35;;;;;;;5.43;3.65;;;14.70;48.30;;;;;;5056182;28;20033;-79
2021/12/11 12:18:01;;;;;;;5.13;3.78;;;14.90;48.10;;;;;;5050277;28;20059;-79
2021/12/11 12:20:27;;;;;;;7.97;5.05;;;15.10;47.60;;;;;;5052701;28;20024;-80
2021/12/11 12:22:55;;;;;;;4.72;4.10;;;15.20;45.90;;;;;;5065209;28;20419;-80
2021/12/11 12:25:21;;;;;;;5.78;3.70;;;15.10;47.30;;;;;;5047220;28;20421;-80
2021/12/11 12:27:48;;;;;;;5.47;3.95;;;15.20;46.90;;;;;;5053700;28;20048;-79
2021/12/11 12:30:19;;;;;;;6.22;4.40;;;14.70;45.00;;;;;;5061433;28;20073;-79
2021/12/11 12:32:47;;;;;;;9.77;5.05;;;14.00;45.30;;;;;;5045471;28;20028;-79
2021/12/11 12:35:17;;;;;;;6.05;3.83;;;13.30;47.40;;;;;;5051094;28;20483;-79
2021/12/11 12:37:43;;;;;;;3.72;3.28;;;12.90;49.00;;;;;;5052755;28;20048;-79
2021/12/11 12:40:26;;;;;;;5.03;3.35;;;12.70;49.50;;;;;;5052829;28;20582;-79
2021/12/11 12:42:55;;;;;;;4.72;3.08;;;12.60;50.30;;;;;;5050340;28;20033;-79
2021/12/11 12:45:31;;;;;;;4.75;3.58;;;12.60;50.40;;;;;;5050497;28;20021;-79
2021/12/11 12:48:05;;;;;;;3.65;3.30;;;12.90;50.70;;;;;;5049941;28;20373;-79
2021/12/11 12:50:41;;;;;;;4.18;3.33;;;12.90;50.30;;;;;;5049100;28;20036;-79
2021/12/11 12:53:07;;;;;;;5.10;3.63;;;13.00;50.60;;;;;;5051797;28;20474;-79
2021/12/11 12:55:49;;;;;;;4.00;3.28;;;12.80;50.60;;;;;;5051971;28;20111;-79
2021/12/11 12:58:38;;;;;;;4.63;3.30;;;12.80;50.80;;;;;;5050051;28;20460;-79
2021/12/11 13:01:13;;;;;;;5.85;3.60;;;12.70;51.00;;;;;;5049486;28;20056;-79
2021/12/11 13:03:41;;;;;;;5.35;3.60;;;12.90;51.30;;;;;;5051238;28;20041;-80
2021/12/11 13:06:24;;;;;;;3.75;3.20;;;13.30;50.00;;;;;;5051913;28;20032;-80
2021/12/11 13:09:00;;;;;;;5.72;3.85;;;13.50;49.80;;;;;;5050491;28;20061;-79
2021/12/11 13:11:37;;;;;;;5.72;4.45;;;13.60;50.30;;;;;;5052404;28;20496;-80
2021/12/11 13:14:04;;;;;;;6.13;4.10;;;13.60;49.90;;;;;;5051871;28;20021;-80
2021/12/11 13:16:37;;;;;;;5.25;4.15;;;13.60;50.10;;;;;;5051705;28;20089;-79
2021/12/11 13:19:20;;;;;;;4.75;3.75;;;13.60;50.40;;;;;;5051420;28;20112;-80
2021/12/11 13:21:54;;;;;;;5.30;3.85;;;13.60;50.20;;;;;;5048408;28;20029;-80
2021/12/11 13:24:20;;;;;;;5.05;3.80;;;13.60;50.30;;;;;;5049437;28;20579;-80
2021/12/11 13:26:55;;;;;;;6.45;4.15;;;13.60;50.50;;;;;;5051720;28;20025;-80
2021/12/11 13:29:24;;;;;;;6.45;3.90;;;13.60;50.40;;;;;;5048026;28;20048;-79
2021/12/11 13:32:00;;;;;;;9.27;4.60;;;13.40;50.60;;;;;;5050936;28;20103;-81
2021/12/11 13:34:31;;;;;;;4.05;3.63;;;13.20;49.80;;;;;;5051061;28;20069;-80
2021/12/11 13:37:03;;;;;;;8.60;4.78;;;12.90;50.70;;;;;;5051274;28;20021;-80
2021/12/11 13:39:29;;;;;;;5.43;3.78;;;12.70;50.10;;;;;;5051649;28;20527;-80